createdAt,value
2023-01-15T00:02:25.486Z,6.42
2023-01-15T00:05:03.107Z,6.45
2023-01-15T00:07:34.370Z,6.47
2023-01-15T00:10:10.368Z,6.48
2023-01-15T00:12:45.187Z,6.49
2023-01-15T00:15:17.488Z,6.52
2023-01-15T00:17:49.271Z,6.53
2023-01-15T00:20:21.785Z,6.55
2023-01-15T00:22:54.450Z,6.57
2023-01-15T00:25:43.396Z,6.59
2023-01-15T00:28:17.601Z,6.58
2023-01-15T00:30:48.982Z,6.58
2023-01-15T00:33:21.429Z,6.59
2023-01-15T00:35:54.059Z,6.59
2023-01-15T00:38:29.687Z,6.59
2023-01-15T00:41:02.619Z,6.61
2023-01-15T00:43:34.529Z,6.64
2023-01-15T00:46:08.993Z,6.67
2023-01-15T00:48:44.604Z,6.71
2023-01-15T00:51:16.617Z,6.74
2023-01-15T00:53:47.337Z,6.74
2023-01-15T00:56:18.513Z,6.74
2023-01-15T00:58:49.553Z,6.77
2023-01-15T01:01:21.673Z,6.78
2023-01-15T01:03:56.581Z,6.80
2023-01-15T01:06:27.570Z,6.80
2023-01-15T01:09:00.444Z,6.80
2023-01-15T01:11:34.466Z,6.82
2023-01-15T01:14:06.506Z,6.83
2023-01-15T01:16:42.356Z,6.83
2023-01-15T01:19:17.763Z,6.81
2023-01-15T01:21:49.525Z,6.83
2023-01-15T01:24:22.652Z,6.85
2023-01-15T01:26:54.749Z,6.85
2023-01-15T01:29:27.687Z,6.85
2023-01-15T01:31:59.133Z,6.86
2023-01-15T01:34:32.794Z,6.87
2023-01-15T01:37:05.564Z,6.84
2023-01-15T01:39:36.952Z,6.82
2023-01-15T01:42:14.965Z,6.80
2023-01-15T01:45:07.827Z,6.83
2023-01-15T01:47:39.735Z,6.86
2023-01-15T01:50:16.829Z,6.90
2023-01-15T01:52:53.923Z,6.90
2023-01-15T01:55:27.427Z,6.90
2023-01-15T01:58:04.197Z,6.92
2023-01-15T02:00:36.812Z,6.92
2023-01-15T02:03:09.901Z,6.93
2023-01-15T02:05:48.349Z,6.94
2023-01-15T02:08:19.821Z,6.95
2023-01-15T02:10:54.752Z,6.99
2023-01-15T02:13:39.275Z,7.00
2023-01-15T02:16:22.532Z,6.99
2023-01-15T02:19:01.107Z,7.00
2023-01-15T02:21:42.164Z,7.02
2023-01-15T02:24:22.979Z,7.05
2023-01-15T02:27:15.431Z,7.07
2023-01-15T02:30:16.247Z,7.07
2023-01-15T02:33:00.029Z,7.05
2023-01-15T02:35:37.440Z,7.07
2023-01-15T02:38:12.481Z,7.07
2023-01-15T02:40:48.242Z,7.08
2023-01-15T02:43:26.185Z,7.07
2023-01-15T02:46:00.394Z,7.09
2023-01-15T02:48:34.661Z,7.10
2023-01-15T02:51:10.951Z,7.10
2023-01-15T02:53:47.269Z,7.11
2023-01-15T02:56:24.429Z,7.12
2023-01-15T02:59:01.977Z,7.14
2023-01-15T03:01:40.561Z,7.15
2023-01-15T03:04:17.662Z,7.17
2023-01-15T03:06:56.228Z,7.17
2023-01-15T03:09:31.029Z,7.17
2023-01-15T03:12:09.505Z,7.17
2023-01-15T03:14:50.623Z,7.20
2023-01-15T03:17:25.078Z,7.23
2023-01-15T03:20:05.174Z,7.24
2023-01-15T03:22:45.389Z,7.24
2023-01-15T03:25:22.281Z,7.26
2023-01-15T03:28:00.811Z,7.28
2023-01-15T03:30:34.828Z,7.29
2023-01-15T03:33:11.551Z,7.31
2023-01-15T03:35:49.455Z,7.34
2023-01-15T03:38:53.273Z,7.33
2023-01-15T03:42:03.427Z,7.33
2023-01-15T03:44:44.229Z,7.32
2023-01-15T03:47:28.457Z,7.35
2023-01-15T03:50:10.263Z,7.35
2023-01-15T03:52:56.290Z,7.36
2023-01-15T03:55:37.778Z,7.37
2023-01-15T03:58:18.694Z,7.40
2023-01-15T04:00:54.730Z,7.42
2023-01-15T04:03:28.385Z,7.44
2023-01-15T04:06:03.195Z,7.46
2023-01-15T04:08:39.975Z,7.47
2023-01-15T04:11:13.335Z,7.48
2023-01-15T04:13:49.136Z,7.48
2023-01-15T04:16:54.319Z,7.49
2023-01-15T04:19:30.469Z,7.52
2023-01-15T04:22:10.403Z,7.56
2023-01-15T04:24:41.282Z,7.59
2023-01-15T04:27:12.185Z,7.62
2023-01-15T04:29:45.794Z,7.63
2023-01-15T04:32:19.888Z,7.64
2023-01-15T04:34:52.934Z,7.66
2023-01-15T04:37:24.415Z,7.66
2023-01-15T04:39:57.399Z,7.67
2023-01-15T04:42:48.450Z,7.67
2023-01-15T04:45:19.909Z,7.66
2023-01-15T04:47:49.532Z,7.66
2023-01-15T04:50:21.634Z,7.64
2023-01-15T04:52:53.220Z,7.66
2023-01-15T04:55:26.363Z,7.64
2023-01-15T04:57:58.451Z,7.64
2023-01-15T05:00:30.485Z,7.65
2023-01-15T05:03:03.140Z,7.66
2023-01-15T05:05:35.930Z,7.70
2023-01-15T05:08:09.350Z,7.71
2023-01-15T05:10:39.601Z,7.72
2023-01-15T05:13:11.337Z,7.72
2023-01-15T05:15:47.972Z,7.72
2023-01-15T05:18:21.826Z,7.73
2023-01-15T05:20:54.633Z,7.71
2023-01-15T05:23:27.175Z,7.70
2023-01-15T05:25:57.969Z,7.71
2023-01-15T05:28:29.816Z,7.73
2023-01-15T05:30:59.929Z,7.73
2023-01-15T05:33:34.259Z,7.75
2023-01-15T05:36:09.329Z,7.75
2023-01-15T05:38:44.354Z,7.76
2023-01-15T05:41:37.338Z,7.77
2023-01-15T05:44:11.386Z,7.76
2023-01-15T05:46:46.024Z,7.76
2023-01-15T05:49:20.526Z,7.77
2023-01-15T05:51:54.562Z,7.78
2023-01-15T05:54:27.682Z,7.83
2023-01-15T05:57:01.277Z,7.87
2023-01-15T05:59:34.201Z,7.89
2023-01-15T06:02:05.539Z,7.90
2023-01-15T06:04:36.634Z,7.91
2023-01-15T06:07:08.193Z,7.91
2023-01-15T06:09:39.483Z,7.91
2023-01-15T06:12:10.871Z,7.91
2023-01-15T06:14:43.371Z,7.93
2023-01-15T06:17:14.471Z,7.92
2023-01-15T06:19:45.549Z,7.91
2023-01-15T06:22:18.263Z,7.92
2023-01-15T06:24:49.980Z,7.93
2023-01-15T06:27:20.896Z,7.91
2023-01-15T06:29:53.195Z,7.91
2023-01-15T06:32:25.165Z,7.90
2023-01-15T06:34:58.154Z,7.87
2023-01-15T06:37:29.450Z,7.84
2023-01-15T06:40:01.262Z,7.81
2023-01-15T06:42:49.983Z,7.78
2023-01-15T06:45:39.496Z,7.71
2023-01-15T06:48:11.550Z,7.68
2023-01-15T06:50:43.774Z,7.66
2023-01-15T06:53:16.335Z,7.62
2023-01-15T06:55:47.246Z,7.61
2023-01-15T06:58:21.615Z,7.60
2023-01-15T07:00:56.118Z,7.57
2023-01-15T07:03:28.275Z,7.55
2023-01-15T07:06:06.267Z,7.56
2023-01-15T07:08:39.742Z,7.52
2023-01-15T07:11:18.691Z,7.50
2023-01-15T07:13:49.863Z,7.49
2023-01-15T07:16:28.013Z,7.49
2023-01-15T07:19:01.243Z,7.47
2023-01-15T07:21:34.030Z,7.48
2023-01-15T07:24:05.210Z,7.47
2023-01-15T07:26:41.190Z,7.49
2023-01-15T07:29:14.867Z,7.50
2023-01-15T07:31:44.886Z,7.52
2023-01-15T07:34:15.908Z,7.53
2023-01-15T07:36:48.425Z,7.53
2023-01-15T07:39:20.293Z,7.53
2023-01-15T07:42:08.842Z,7.54
2023-01-15T07:44:58.316Z,7.54
2023-01-15T07:47:48.013Z,7.52
2023-01-15T07:50:30.551Z,7.49
2023-01-15T07:53:02.792Z,7.48
2023-01-15T07:55:35.480Z,7.49
2023-01-15T07:58:07.422Z,7.52
2023-01-15T08:00:42.010Z,7.54
2023-01-15T08:03:13.978Z,7.56
2023-01-15T08:05:45.397Z,7.59
2023-01-15T08:08:21.631Z,7.61
2023-01-15T08:11:18.979Z,7.61
2023-01-15T08:14:06.814Z,7.62
2023-01-15T08:16:38.433Z,7.63
2023-01-15T08:19:09.200Z,7.66
2023-01-15T08:21:41.465Z,7.67
2023-01-15T08:24:13.419Z,7.69
2023-01-15T08:26:43.972Z,7.72
2023-01-15T08:29:15.715Z,7.74
2023-01-15T08:31:50.035Z,7.76
2023-01-15T08:34:20.600Z,7.76
2023-01-15T08:37:00.059Z,7.78
2023-01-15T08:39:30.869Z,7.79
2023-01-15T08:42:01.710Z,7.80
2023-01-15T08:44:34.463Z,7.83
2023-01-15T08:47:04.750Z,7.84
2023-01-15T08:49:36.128Z,7.86
2023-01-15T08:52:08.356Z,7.90
2023-01-15T08:54:42.149Z,7.94
2023-01-15T08:57:13.903Z,7.94
2023-01-15T08:59:46.945Z,7.95
2023-01-15T09:02:19.404Z,7.93
2023-01-15T09:04:51.796Z,7.95
2023-01-15T09:07:23.104Z,8.00
2023-01-15T09:09:55.859Z,8.02
2023-01-15T09:12:27.728Z,8.02
2023-01-15T09:15:03.133Z,8.04
2023-01-15T09:17:39.884Z,8.05
2023-01-15T09:20:15.515Z,8.06
2023-01-15T09:22:45.469Z,8.09
2023-01-15T09:25:19.951Z,8.12
2023-01-15T09:27:55.642Z,8.16
2023-01-15T09:30:29.284Z,8.17
2023-01-15T09:33:00.692Z,8.20
2023-01-15T09:35:32.473Z,8.20
2023-01-15T09:38:05.851Z,8.21
2023-01-15T09:40:49.692Z,8.23
2023-01-15T09:43:45.026Z,8.24
2023-01-15T09:46:27.854Z,8.23
2023-01-15T09:49:10.996Z,8.22
2023-01-15T09:51:51.847Z,8.23
2023-01-15T09:54:39.885Z,8.23
2023-01-15T09:57:17.546Z,8.26
2023-01-15T09:59:54.385Z,8.30
2023-01-15T10:02:35.503Z,8.30
2023-01-15T10:05:14.773Z,8.33
2023-01-15T10:07:54.631Z,8.32
2023-01-15T10:10:33.427Z,8.33
2023-01-15T10:13:17.664Z,8.33
2023-01-15T10:15:50.329Z,8.35
2023-01-15T10:18:24.435Z,8.36
2023-01-15T10:21:12.076Z,8.37
2023-01-15T10:23:52.878Z,8.39
2023-01-15T10:26:36.172Z,8.41
2023-01-15T10:29:17.519Z,8.43
2023-01-15T10:31:56.984Z,8.44
2023-01-15T10:35:08.709Z,8.45
2023-01-15T10:37:45.917Z,8.43
2023-01-15T10:40:38.125Z,8.43
2023-01-15T10:43:19.024Z,8.43
2023-01-15T10:45:57.166Z,8.45
2023-01-15T10:48:34.843Z,8.48
2023-01-15T10:51:15.477Z,8.49
2023-01-15T10:53:53.446Z,8.49
2023-01-15T10:56:36.389Z,8.49
2023-01-15T10:59:17.535Z,8.48
2023-01-15T11:01:50.548Z,8.48
2023-01-15T11:04:21.617Z,8.48
2023-01-15T11:06:53.390Z,8.51
2023-01-15T11:09:30.799Z,8.51
2023-01-15T11:12:37.318Z,8.50
2023-01-15T11:15:42.089Z,8.49
2023-01-15T11:18:43.962Z,8.35
2023-01-15T11:21:24.676Z,7.99
2023-01-15T11:24:00.675Z,7.74
2023-01-15T11:26:35.721Z,7.44
2023-01-15T11:29:15.571Z,7.27
2023-01-15T11:31:47.723Z,7.13
2023-01-15T11:34:23.577Z,7.03
2023-01-15T11:37:06.740Z,6.95
2023-01-15T11:39:38.734Z,6.88
2023-01-15T11:42:36.675Z,6.83
2023-01-15T11:45:36.147Z,6.78
2023-01-15T11:48:46.159Z,6.77
2023-01-15T11:51:20.682Z,6.66
2023-01-15T11:54:00.913Z,6.63
2023-01-15T11:56:36.967Z,6.64
2023-01-15T11:59:14.842Z,6.67
2023-01-15T12:02:00.275Z,6.67
2023-01-15T12:04:47.601Z,6.64
2023-01-15T12:07:40.791Z,6.64
2023-01-15T12:10:41.726Z,6.67
2023-01-15T12:13:30.247Z,6.65
2023-01-15T12:16:11.122Z,6.62
2023-01-15T12:19:07.088Z,6.64
2023-01-15T12:22:11.846Z,6.60
2023-01-15T12:25:31.764Z,6.59
2023-01-15T12:28:08.652Z,6.58
2023-01-15T12:30:47.621Z,6.56
2023-01-15T12:33:36.760Z,6.56
2023-01-15T12:36:16.758Z,6.59
2023-01-15T12:38:52.211Z,6.57
2023-01-15T12:41:45.985Z,6.54
2023-01-15T12:44:40.367Z,6.53
2023-01-15T12:47:18.390Z,6.55
2023-01-15T12:49:56.873Z,6.55
2023-01-15T12:52:34.897Z,6.55
2023-01-15T12:55:28.099Z,6.55
2023-01-15T12:58:03.143Z,6.55
2023-01-15T13:00:41.890Z,6.57
2023-01-15T13:03:25.643Z,6.60
2023-01-15T13:06:03.141Z,6.61
2023-01-15T13:08:38.849Z,6.62
2023-01-15T13:11:20.366Z,6.64
2023-01-15T13:14:01.113Z,6.69
2023-01-15T13:16:47.130Z,6.73
2023-01-15T13:19:32.011Z,6.74
2023-01-15T13:22:13.033Z,6.77
2023-01-15T13:25:07.301Z,6.78
2023-01-15T13:27:55.123Z,6.73
2023-01-15T13:30:40.996Z,6.62
2023-01-15T13:33:27.090Z,6.59
2023-01-15T13:36:10.838Z,6.58
2023-01-15T13:38:46.931Z,6.57
2023-01-15T13:41:37.823Z,6.57
2023-01-15T13:44:19.172Z,6.60
2023-01-15T13:47:08.598Z,6.59
2023-01-15T13:49:47.380Z,6.57
2023-01-15T13:52:29.220Z,6.56
2023-01-15T13:55:11.609Z,6.52
2023-01-15T13:57:48.351Z,6.52
2023-01-15T14:00:36.603Z,6.52
2023-01-15T14:03:29.349Z,6.53
2023-01-15T14:06:04.340Z,6.53
2023-01-15T14:08:44.147Z,6.53
2023-01-15T14:11:46.698Z,6.54
2023-01-15T14:15:04.006Z,6.47
2023-01-15T14:17:57.616Z,6.38
2023-01-15T14:20:57.244Z,6.35
2023-01-15T14:23:53.193Z,6.31
2023-01-15T14:26:34.727Z,6.29
2023-01-15T14:29:28.229Z,6.26
2023-01-15T14:32:24.967Z,6.20
2023-01-15T14:35:14.741Z,6.18
2023-01-15T14:37:54.709Z,6.15
2023-01-15T14:40:30.823Z,6.12
2023-01-15T14:43:10.395Z,6.15
2023-01-15T14:45:46.304Z,6.16
2023-01-15T14:48:35.283Z,6.17
2023-01-15T14:51:14.003Z,6.17
2023-01-15T14:53:49.865Z,6.18
2023-01-15T14:56:32.593Z,6.20
2023-01-15T14:59:09.942Z,6.20
2023-01-15T15:01:51.534Z,6.19
2023-01-15T15:04:33.063Z,6.20
2023-01-15T15:07:13.468Z,6.19
2023-01-15T15:09:50.579Z,6.17
2023-01-15T15:12:35.503Z,6.17
2023-01-15T15:15:12.420Z,6.14
2023-01-15T15:17:58.383Z,6.11
2023-01-15T15:20:38.914Z,6.09
2023-01-15T15:23:19.995Z,6.05
2023-01-15T15:26:00.116Z,6.00
2023-01-15T15:28:31.760Z,6.00
2023-01-15T15:31:06.146Z,5.97
2023-01-15T15:33:42.344Z,5.92
2023-01-15T15:36:16.061Z,5.88
2023-01-15T15:38:55.242Z,5.86
2023-01-15T15:41:59.411Z,5.81
2023-01-15T15:44:59.144Z,5.77
2023-01-15T15:48:01.135Z,5.78
2023-01-15T15:50:33.829Z,5.74
2023-01-15T15:53:06.591Z,5.73
2023-01-15T15:55:44.076Z,5.72
2023-01-15T15:58:23.710Z,5.72
2023-01-15T16:00:57.945Z,5.70
2023-01-15T16:03:34.109Z,5.68
2023-01-15T16:06:10.919Z,5.65
2023-01-15T16:08:40.663Z,5.63
2023-01-15T16:11:15.653Z,5.63
2023-01-15T16:13:52.005Z,5.62
2023-01-15T16:16:28.673Z,5.62
2023-01-15T16:19:06.600Z,5.62
2023-01-15T16:21:41.103Z,5.61
2023-01-15T16:24:28.387Z,5.61
2023-01-15T16:27:07.871Z,5.57
2023-01-15T16:29:43.916Z,5.52
2023-01-15T16:32:25.511Z,5.53
2023-01-15T16:35:05.519Z,5.49
2023-01-15T16:37:40.939Z,5.47
2023-01-15T16:40:27.742Z,5.46
2023-01-15T16:43:15.835Z,5.44
2023-01-15T16:46:03.435Z,5.48
2023-01-15T16:48:37.848Z,5.50
2023-01-15T16:51:33.096Z,5.52
2023-01-15T16:54:09.237Z,5.51
2023-01-15T16:56:56.548Z,5.51
2023-01-15T17:00:03.580Z,5.46
2023-01-15T17:02:45.649Z,5.37
2023-01-15T17:05:48.847Z,5.35
2023-01-15T17:08:24.434Z,5.33
2023-01-15T17:10:58.683Z,5.31
2023-01-15T17:13:34.666Z,5.25
2023-01-15T17:16:16.726Z,5.22
2023-01-15T17:18:51.302Z,5.20
2023-01-15T17:21:30.008Z,5.22
2023-01-15T17:24:06.681Z,5.22
2023-01-15T17:26:39.944Z,5.20
2023-01-15T17:29:14.056Z,5.20
2023-01-15T17:31:46.372Z,5.22
2023-01-15T17:34:24.621Z,5.22
2023-01-15T17:36:56.469Z,5.19
2023-01-15T17:39:29.069Z,5.16
2023-01-15T17:42:00.071Z,5.12
2023-01-15T17:44:31.734Z,5.08
2023-01-15T17:47:04.238Z,5.07
2023-01-15T17:49:38.843Z,5.08
2023-01-15T17:52:19.111Z,5.08
2023-01-15T17:55:11.380Z,5.04
2023-01-15T17:57:59.988Z,4.98
2023-01-15T18:01:06.182Z,4.94
2023-01-15T18:03:57.113Z,4.89
2023-01-15T18:06:33.089Z,4.86
2023-01-15T18:09:08.254Z,4.85
2023-01-15T18:11:41.696Z,4.84
2023-01-15T18:14:14.545Z,4.84
2023-01-15T18:16:46.848Z,4.87
2023-01-15T18:19:17.877Z,4.85
2023-01-15T18:21:50.803Z,4.84
2023-01-15T18:24:22.365Z,4.86
2023-01-15T18:26:56.460Z,4.84
2023-01-15T18:29:27.383Z,4.85
2023-01-15T18:32:01.323Z,4.83
2023-01-15T18:34:33.889Z,4.84
2023-01-15T18:37:07.255Z,4.85
2023-01-15T18:39:40.297Z,4.87
2023-01-15T18:42:29.965Z,4.86
2023-01-15T18:45:20.580Z,4.84
2023-01-15T18:47:52.819Z,4.81
2023-01-15T18:50:26.021Z,4.80
2023-01-15T18:53:01.222Z,4.79
2023-01-15T18:55:33.960Z,4.76
2023-01-15T18:58:05.718Z,4.77
2023-01-15T19:00:40.135Z,4.76
2023-01-15T19:03:14.732Z,4.74
2023-01-15T19:05:47.133Z,4.73
2023-01-15T19:08:24.612Z,4.67
2023-01-15T19:10:56.607Z,4.67
2023-01-15T19:13:28.244Z,4.66
2023-01-15T19:16:17.595Z,4.65
2023-01-15T19:18:53.645Z,4.62
2023-01-15T19:21:25.883Z,4.61
2023-01-15T19:24:03.401Z,4.60
2023-01-15T19:26:36.673Z,4.62
2023-01-15T19:29:08.047Z,4.64
2023-01-15T19:31:40.431Z,4.63
2023-01-15T19:34:33.171Z,4.62
2023-01-15T19:37:09.377Z,4.58
2023-01-15T19:39:41.247Z,4.56
2023-01-15T19:42:32.137Z,4.56
2023-01-15T19:45:22.057Z,4.54
2023-01-15T19:48:11.895Z,4.53
2023-01-15T19:50:47.839Z,4.50
2023-01-15T19:53:19.280Z,4.52
2023-01-15T19:55:52.714Z,4.52
2023-01-15T19:58:24.993Z,4.51
2023-01-15T20:00:58.382Z,4.52
2023-01-15T20:03:32.374Z,4.53
2023-01-15T20:06:03.767Z,4.53
2023-01-15T20:08:38.519Z,4.53
2023-01-15T20:11:10.825Z,4.51
2023-01-15T20:13:54.419Z,4.52
2023-01-15T20:16:26.546Z,4.52
2023-01-15T20:18:59.478Z,4.50
2023-01-15T20:21:31.261Z,4.51
2023-01-15T20:24:02.667Z,4.53
2023-01-15T20:26:36.940Z,4.51
2023-01-15T20:29:10.715Z,4.51
2023-01-15T20:31:45.970Z,4.51
2023-01-15T20:34:20.723Z,4.51
2023-01-15T20:36:53.199Z,4.49
2023-01-15T20:39:24.934Z,4.50
2023-01-15T20:42:16.652Z,4.50
2023-01-15T20:44:55.807Z,4.46
2023-01-15T20:47:47.210Z,4.47
2023-01-15T20:50:20.553Z,4.48
2023-01-15T20:52:53.480Z,4.47
2023-01-15T20:55:30.149Z,4.47
2023-01-15T20:58:04.222Z,4.47
2023-01-15T21:00:36.198Z,4.46
2023-01-15T21:03:10.925Z,4.43
2023-01-15T21:05:43.643Z,4.44
2023-01-15T21:08:20.980Z,4.42
2023-01-15T21:10:55.645Z,4.41
2023-01-15T21:13:30.763Z,4.40
2023-01-15T21:16:06.003Z,4.39
2023-01-15T21:18:36.620Z,4.38
2023-01-15T21:21:12.815Z,4.36
2023-01-15T21:23:45.270Z,4.34
2023-01-15T21:26:19.295Z,4.33
2023-01-15T21:28:55.270Z,4.35
2023-01-15T21:31:26.659Z,4.34
2023-01-15T21:34:04.951Z,4.31
2023-01-15T21:36:35.650Z,4.30
2023-01-15T21:39:10.918Z,4.30
2023-01-15T21:42:03.336Z,4.28
2023-01-15T21:44:50.867Z,4.24
2023-01-15T21:47:23.474Z,4.17
2023-01-15T21:49:55.564Z,4.15
2023-01-15T21:52:30.396Z,4.15
2023-01-15T21:55:02.540Z,4.14
2023-01-15T21:57:36.012Z,4.13
2023-01-15T22:00:16.409Z,4.14
2023-01-15T22:02:48.592Z,4.13
2023-01-15T22:05:21.648Z,4.14
2023-01-15T22:07:53.456Z,4.15
2023-01-15T22:10:25.810Z,4.14
2023-01-15T22:12:57.458Z,4.13
2023-01-15T22:15:31.964Z,4.13
2023-01-15T22:18:04.840Z,4.14
2023-01-15T22:20:38.583Z,4.13
2023-01-15T22:23:10.352Z,4.13
2023-01-15T22:25:50.120Z,4.12
2023-01-15T22:28:30.203Z,4.12
2023-01-15T22:31:20.735Z,4.09
2023-01-15T22:33:53.562Z,4.09
2023-01-15T22:36:26.591Z,4.09
2023-01-15T22:39:02.156Z,4.09
2023-01-15T22:41:52.640Z,4.09
2023-01-15T22:44:24.375Z,4.07
2023-01-15T22:46:57.322Z,4.05
2023-01-15T22:49:32.565Z,4.03
2023-01-15T22:52:06.293Z,4.03
2023-01-15T22:54:36.985Z,4.02
2023-01-15T22:57:11.471Z,4.01
2023-01-15T22:59:45.333Z,4.02
2023-01-15T23:02:39.177Z,4.01
2023-01-15T23:05:12.410Z,3.98
2023-01-15T23:07:45.001Z,3.99
2023-01-15T23:10:18.252Z,4.01
2023-01-15T23:12:51.214Z,4.01
2023-01-15T23:15:24.560Z,4.01
2023-01-15T23:17:56.756Z,4.02
2023-01-15T23:20:30.069Z,4.03
2023-01-15T23:23:01.569Z,4.04
2023-01-15T23:25:32.126Z,4.06
2023-01-15T23:28:05.536Z,4.07
2023-01-15T23:30:38.456Z,4.07
2023-01-15T23:33:10.986Z,4.09
2023-01-15T23:35:45.749Z,4.10
2023-01-15T23:38:20.350Z,4.11
2023-01-15T23:40:52.111Z,4.07
2023-01-15T23:43:41.527Z,4.07
2023-01-15T23:46:36.776Z,4.06
2023-01-15T23:49:10.185Z,4.06
2023-01-15T23:51:41.500Z,4.07
2023-01-15T23:54:13.876Z,4.08
2023-01-15T23:56:46.272Z,4.06
2023-01-15T23:59:21.058Z,4.05
